createdAt,value
2022-09-12T00:02:34.323Z,101176.84
2022-09-12T00:08:20.930Z,101186.41
2022-09-12T00:14:10.796Z,101177.66
2022-09-12T00:19:57.666Z,101158.47
2022-09-12T00:25:45.770Z,101153.41
2022-09-12T00:31:32.665Z,101158.28
2022-09-12T00:37:19.265Z,101149.28
2022-09-12T00:43:06.620Z,101138.28
2022-09-12T00:49:04.163Z,101146.34
2022-09-12T00:55:02.716Z,101136.25
2022-09-12T01:00:49.890Z,101142.59
2022-09-12T01:06:40.507Z,101126.31
2022-09-12T01:12:27.360Z,101120.81
2022-09-12T01:18:30.482Z,101124.88
2022-09-12T01:24:20.206Z,101119.69
2022-09-12T01:30:21.097Z,101110.72
2022-09-12T01:36:42.931Z,101107.56
2022-09-12T01:42:35.049Z,101101.88
2022-09-12T01:48:27.989Z,101098.25
2022-09-12T01:54:21.357Z,101087.09
2022-09-12T02:00:11.550Z,101086.59
2022-09-12T02:06:08.203Z,101085.50
2022-09-12T02:11:59.149Z,101078.22
2022-09-12T02:17:49.488Z,101075.69
2022-09-12T02:23:46.165Z,101082.16
2022-09-12T02:29:32.831Z,101069.38
2022-09-12T02:35:33.935Z,101061.38
2022-09-12T02:41:21.723Z,101044.19
2022-09-12T02:47:17.114Z,101042.91
2022-09-12T02:53:05.619Z,101033.34
2022-09-12T02:58:52.980Z,101040.44
2022-09-12T03:04:51.631Z,101027.06
2022-09-12T03:10:50.765Z,101032.09
2022-09-12T03:16:43.282Z,101030.34
2022-09-12T03:22:53.426Z,101035.41
2022-09-12T03:28:42.502Z,101023.09
2022-09-12T03:34:29.162Z,101010.84
2022-09-12T03:40:15.830Z,101012.88
2022-09-12T03:46:02.577Z,101009.13
2022-09-12T03:51:49.242Z,101014.34
2022-09-12T03:57:35.897Z,101003.63
2022-09-12T04:03:22.732Z,101001.41
2022-09-12T04:09:09.552Z,100990.97
2022-09-12T04:14:56.132Z,100985.16
2022-09-12T04:20:42.682Z,100983.41
2022-09-12T04:26:29.911Z,100977.91
2022-09-12T04:32:16.663Z,100982.94
2022-09-12T04:38:03.875Z,100981.56
2022-09-12T04:44:16.769Z,100977.47
2022-09-12T04:50:03.606Z,100980.94
2022-09-12T04:55:50.179Z,100984.06
2022-09-12T05:01:37.121Z,100979.34
2022-09-12T05:07:23.934Z,100971.97
2022-09-12T05:13:10.555Z,100978.38
2022-09-12T05:18:58.364Z,100968.63
2022-09-12T05:24:49.873Z,100959.19
2022-09-12T05:30:37.152Z,100961.72
2022-09-12T05:36:26.783Z,100969.09
2022-09-12T05:42:13.411Z,100971.94
2022-09-12T05:47:59.979Z,100974.09
2022-09-12T05:53:48.855Z,100976.56
2022-09-12T05:59:35.681Z,100974.03
2022-09-12T06:05:22.786Z,100984.34
2022-09-12T06:11:11.661Z,100980.19
2022-09-12T06:16:58.401Z,100976.22
2022-09-12T06:22:45.097Z,100979.44
2022-09-12T06:28:32.883Z,100971.19
2022-09-12T06:34:19.951Z,100978.47
2022-09-12T06:40:08.535Z,100986.13
2022-09-12T06:45:55.291Z,100986.84
2022-09-12T06:51:42.611Z,100994.50
2022-09-12T06:57:31.403Z,100984.31
2022-09-12T07:03:18.589Z,100974.31
2022-09-12T07:09:07.136Z,100978.44
2022-09-12T07:14:53.839Z,100977.50
2022-09-12T07:20:40.987Z,100981.81
2022-09-12T07:26:29.482Z,100980.81
2022-09-12T07:32:16.118Z,100989.31
2022-09-12T07:38:02.983Z,100998.34
2022-09-12T07:44:00.511Z,100987.34
2022-09-12T07:49:47.658Z,100992.03
2022-09-12T07:55:34.290Z,100998.16
2022-09-12T08:01:24.797Z,100984.75
2022-09-12T08:07:12.034Z,100970.75
2022-09-12T08:12:59.027Z,100975.00
2022-09-12T08:18:45.820Z,100949.84
2022-09-12T08:24:32.656Z,100962.78
2022-09-12T08:30:19.348Z,100975.09
2022-09-12T08:36:21.342Z,100972.47
2022-09-12T08:48:04.777Z,100960.91
2022-09-12T08:53:54.676Z,100955.44
2022-09-12T08:59:44.812Z,100950.63
2022-09-12T09:05:40.284Z,100946.00
2022-09-12T09:11:52.591Z,100942.00
2022-09-12T09:17:43.345Z,100939.06
2022-09-12T09:23:34.850Z,100924.63
2022-09-12T09:29:26.746Z,100943.06
2022-09-12T09:35:18.766Z,100943.88
2022-09-12T09:41:30.122Z,100932.00
2022-09-12T09:47:18.863Z,100925.00
2022-09-12T09:53:10.418Z,100907.06
2022-09-12T09:58:57.249Z,100911.66
2022-09-12T10:04:55.180Z,100898.88
2022-09-12T10:11:03.735Z,100890.38
2022-09-12T10:16:53.308Z,100887.03
2022-09-12T10:22:40.006Z,100877.50
2022-09-12T10:28:39.743Z,100878.66
2022-09-12T10:34:39.288Z,100868.22
2022-09-12T10:40:37.775Z,100859.25
2022-09-12T10:46:29.461Z,100867.31
2022-09-12T10:52:25.656Z,100853.38
2022-09-12T10:58:22.461Z,100854.97
2022-09-12T11:04:30.713Z,100848.38
2022-09-12T11:10:17.258Z,100848.78
2022-09-12T11:16:16.179Z,100847.56
2022-09-12T11:22:11.778Z,100862.38
2022-09-12T11:28:18.670Z,100861.97
2022-09-12T11:34:10.271Z,100864.25
2022-09-12T11:40:02.779Z,100861.88
2022-09-12T11:45:51.004Z,100852.56
2022-09-12T11:52:13.113Z,100861.94
2022-09-12T11:58:00.047Z,100848.75
2022-09-12T12:03:48.921Z,100852.63
2022-09-12T12:09:36.462Z,100855.00
2022-09-12T12:15:25.243Z,100844.06
2022-09-12T12:21:29.411Z,100837.72
2022-09-12T12:40:29.691Z,100808.50
2022-09-12T12:46:23.950Z,100804.06
2022-09-12T12:52:17.775Z,100801.34
2022-09-12T12:58:19.475Z,100789.63
2022-09-12T13:04:15.736Z,100776.44
2022-09-12T13:10:04.379Z,100766.66
2022-09-12T13:15:52.755Z,100776.34
2022-09-12T13:21:39.526Z,100785.81
2022-09-12T13:27:26.290Z,100799.00
2022-09-12T13:33:28.531Z,100803.75
2022-09-12T13:39:27.710Z,100781.19
2022-09-12T13:45:14.269Z,100785.09
2022-09-12T13:51:03.443Z,100792.50
2022-09-12T13:56:50.186Z,100791.34
2022-09-12T14:02:37.144Z,100788.22
2022-09-12T14:08:24.111Z,100776.56
2022-09-12T14:14:31.430Z,100751.38
2022-09-12T14:20:20.418Z,100746.72
2022-09-12T14:26:12.302Z,100751.78
2022-09-12T14:32:04.286Z,100732.38
2022-09-12T14:37:51.727Z,100738.59
2022-09-12T14:43:44.354Z,100739.34
2022-09-12T14:49:34.984Z,100735.50
2022-09-12T14:55:46.413Z,100723.81
2022-09-12T15:01:33.084Z,100730.44
2022-09-12T15:07:59.505Z,100739.38
2022-09-12T15:13:46.417Z,100738.56
2022-09-12T15:19:33.131Z,100733.91
2022-09-12T15:25:19.972Z,100747.84
2022-09-12T15:31:12.260Z,100764.16
2022-09-12T15:36:58.849Z,100750.53
2022-09-12T15:42:45.517Z,100747.81
2022-09-12T15:48:32.924Z,100726.44
2022-09-12T15:54:20.789Z,100722.94
2022-09-12T16:00:08.022Z,100718.63
2022-09-12T16:06:01.689Z,100717.78
2022-09-12T16:11:50.337Z,100713.19
2022-09-12T16:17:37.084Z,100711.22
2022-09-12T16:23:24.677Z,100712.38
2022-09-12T16:29:13.722Z,100711.19
2022-09-12T16:35:00.905Z,100719.31
2022-09-12T16:40:47.712Z,100713.50
2022-09-12T16:46:34.761Z,100710.34
2022-09-12T16:52:21.415Z,100719.53
2022-09-12T16:58:08.012Z,100710.94
2022-09-12T17:03:59.210Z,100705.81
2022-09-12T17:09:48.034Z,100699.63
2022-09-12T17:15:36.933Z,100694.81
2022-09-12T17:21:23.829Z,100695.63
2022-09-12T17:27:10.472Z,100692.03
2022-09-12T17:32:57.182Z,100681.19
2022-09-12T17:38:45.907Z,100675.28
2022-09-12T17:44:35.471Z,100675.72
2022-09-12T17:50:31.830Z,100670.22
2022-09-12T17:56:20.350Z,100689.94
2022-09-12T18:02:16.115Z,100700.66
2022-09-12T18:08:02.705Z,100716.78
2022-09-12T18:13:49.374Z,100701.63
2022-09-12T18:19:36.309Z,100710.03
2022-09-12T18:25:23.221Z,100724.72
2022-09-12T18:31:16.119Z,100736.13
2022-09-12T18:37:05.247Z,100760.59
2022-09-12T18:42:52.996Z,100794.88
2022-09-12T18:48:42.247Z,100798.59
2022-09-12T18:54:29.343Z,100796.94
2022-09-12T19:00:17.081Z,100771.63
2022-09-12T19:06:12.876Z,100773.50
2022-09-12T19:11:59.582Z,100770.66
2022-09-12T19:17:46.257Z,100769.59
2022-09-12T19:23:35.355Z,100757.47
2022-09-12T19:29:22.114Z,100754.44
2022-09-12T19:35:09.357Z,100747.16
2022-09-12T19:40:58.001Z,100747.06
2022-09-12T19:46:45.353Z,100755.13
2022-09-12T19:52:32.025Z,100739.69
2022-09-12T19:58:18.622Z,100730.34
2022-09-12T20:04:06.813Z,100732.44
2022-09-12T20:09:54.952Z,100722.66
2022-09-12T20:15:41.583Z,100724.84
2022-09-12T20:21:32.088Z,100716.47
2022-09-12T20:27:18.979Z,100720.69
2022-09-12T20:33:05.937Z,100717.13
2022-09-12T20:38:56.930Z,100716.97
2022-09-12T20:44:43.687Z,100713.78
2022-09-12T20:50:30.275Z,100721.53
2022-09-12T20:56:16.860Z,100732.88
2022-09-12T21:02:03.508Z,100748.28
2022-09-12T21:07:50.135Z,100765.81
2022-09-12T21:13:37.093Z,100763.13
2022-09-12T21:19:23.739Z,100763.44
2022-09-12T21:25:10.878Z,100756.81
2022-09-12T21:30:57.686Z,100747.69
2022-09-12T21:36:44.494Z,100743.75
2022-09-12T21:42:31.796Z,100735.91
2022-09-12T21:48:18.426Z,100743.09
2022-09-12T21:54:05.148Z,100729.09
2022-09-12T21:59:51.876Z,100726.13
2022-09-12T22:05:40.169Z,100737.06
2022-09-12T22:11:27.055Z,100730.53
2022-09-12T22:17:14.275Z,100731.53
2022-09-12T22:23:24.388Z,100743.75
2022-09-12T22:29:13.308Z,100752.97
2022-09-12T22:35:00.008Z,100758.53
2022-09-12T22:40:46.578Z,100758.03
2022-09-12T22:46:33.753Z,100767.56
2022-09-12T22:52:20.435Z,100766.00
2022-09-12T22:58:07.141Z,100757.53
2022-09-12T23:03:54.022Z,100768.69
2022-09-12T23:09:41.281Z,100771.06
2022-09-12T23:15:28.255Z,100773.06
2022-09-12T23:21:16.802Z,100768.25
2022-09-12T23:27:03.401Z,100764.81
2022-09-12T23:32:50.295Z,100754.13
2022-09-12T23:38:37.004Z,100755.78
2022-09-12T23:44:23.755Z,100769.75
2022-09-12T23:50:10.378Z,100781.81
2022-09-12T23:55:57.616Z,100783.50
